sensor_id;sensor_type;location;lat;lon;timestamp;P1;durP1;ratioP1;P2;durP2;ratioP2
76357;SDS011;65185;21.060;105.826;2023-02-18T00:01:25;87.50;;;47.15;;
76357;SDS011;65185;21.060;105.826;2023-02-18T00:03:54;91.10;;;46.53;;
76357;SDS011;65185;21.060;105.826;2023-02-18T00:06:24;87.65;;;45.88;;
76357;SDS011;65185;21.060;105.826;2023-02-18T00:08:53;84.95;;;46.08;;
76357;SDS011;65185;21.060;105.826;2023-02-18T00:11:23;85.85;;;46.78;;
76357;SDS011;65185;21.060;105.826;2023-02-18T00:13:52;88.00;;;47.70;;
76357;SDS011;65185;21.060;105.826;2023-02-18T00:16:21;92.43;;;48.30;;
76357;SDS011;65185;21.060;105.826;2023-02-18T00:18:48;84.60;;;46.22;;
76357;SDS011;65185;21.060;105.826;2023-02-18T00:21:16;87.53;;;48.00;;
76357;SDS011;65185;21.060;105.826;2023-02-18T00:23:43;88.18;;;47.78;;
76357;SDS011;65185;21.060;105.826;2023-02-18T00:26:11;94.50;;;50.60;;
76357;SDS011;65185;21.060;105.826;2023-02-18T00:31:10;84.65;;;46.63;;
76357;SDS011;65185;21.060;105.826;2023-02-18T00:33:39;88.80;;;46.67;;
76357;SDS011;65185;21.060;105.826;2023-02-18T00:36:07;88.07;;;46.00;;
76357;SDS011;65185;21.060;105.826;2023-02-18T00:38:36;91.15;;;50.05;;
76357;SDS011;65185;21.060;105.826;2023-02-18T00:41:03;90.20;;;47.47;;
76357;SDS011;65185;21.060;105.826;2023-02-18T00:43:31;83.32;;;44.78;;
76357;SDS011;65185;21.060;105.826;2023-02-18T00:45:58;82.60;;;43.83;;
76357;SDS011;65185;21.060;105.826;2023-02-18T00:48:25;86.82;;;46.20;;
76357;SDS011;65185;21.060;105.826;2023-02-18T00:50:52;91.75;;;47.28;;
76357;SDS011;65185;21.060;105.826;2023-02-18T00:53:19;112.68;;;62.00;;
76357;SDS011;65185;21.060;105.826;2023-02-18T00:55:47;113.75;;;64.95;;
76357;SDS011;65185;21.060;105.826;2023-02-18T00:58:14;108.68;;;60.45;;
76357;SDS011;65185;21.060;105.826;2023-02-18T01:00:41;110.63;;;63.28;;
76357;SDS011;65185;21.060;105.826;2023-02-18T01:03:09;100.97;;;55.67;;
76357;SDS011;65185;21.060;105.826;2023-02-18T01:05:38;101.10;;;57.33;;
76357;SDS011;65185;21.060;105.826;2023-02-18T01:08:05;101.07;;;55.10;;
76357;SDS011;65185;21.060;105.826;2023-02-18T01:10:34;103.10;;;57.63;;
76357;SDS011;65185;21.060;105.826;2023-02-18T01:13:02;106.70;;;56.50;;
76357;SDS011;65185;21.060;105.826;2023-02-18T01:15:29;95.68;;;53.03;;
76357;SDS011;65185;21.060;105.826;2023-02-18T01:17:56;98.30;;;52.75;;
76357;SDS011;65185;21.060;105.826;2023-02-18T01:20:23;93.57;;;50.88;;
76357;SDS011;65185;21.060;105.826;2023-02-18T01:22:51;88.72;;;48.67;;
76357;SDS011;65185;21.060;105.826;2023-02-18T01:25:18;90.38;;;49.40;;
76357;SDS011;65185;21.060;105.826;2023-02-18T01:27:44;98.97;;;51.15;;
76357;SDS011;65185;21.060;105.826;2023-02-18T01:30:13;91.68;;;49.53;;
76357;SDS011;65185;21.060;105.826;2023-02-18T01:32:41;97.22;;;55.17;;
76357;SDS011;65185;21.060;105.826;2023-02-18T01:35:13;91.53;;;49.70;;
76357;SDS011;65185;21.060;105.826;2023-02-18T01:37:41;88.05;;;46.22;;
76357;SDS011;65185;21.060;105.826;2023-02-18T01:40:09;81.63;;;47.90;;
76357;SDS011;65185;21.060;105.826;2023-02-18T01:42:40;87.00;;;45.85;;
76357;SDS011;65185;21.060;105.826;2023-02-18T01:48:16;90.70;;;46.70;;
76357;SDS011;65185;21.060;105.826;2023-02-18T01:50:47;76.82;;;38.33;;
76357;SDS011;65185;21.060;105.826;2023-02-18T01:53:30;71.10;;;36.97;;
76357;SDS011;65185;21.060;105.826;2023-02-18T01:56:05;88.60;;;42.50;;
76357;SDS011;65185;21.060;105.826;2023-02-18T01:58:36;74.50;;;40.63;;
76357;SDS011;65185;21.060;105.826;2023-02-18T02:01:04;79.78;;;41.58;;
76357;SDS011;65185;21.060;105.826;2023-02-18T02:03:31;77.13;;;40.05;;
76357;SDS011;65185;21.060;105.826;2023-02-18T02:05:58;76.93;;;41.05;;
76357;SDS011;65185;21.060;105.826;2023-02-18T02:08:25;85.00;;;42.95;;
76357;SDS011;65185;21.060;105.826;2023-02-18T02:16:57;92.35;;;48.25;;
76357;SDS011;65185;21.060;105.826;2023-02-18T02:31:16;94.80;;;49.90;;
76357;SDS011;65185;21.060;105.826;2023-02-18T02:39:20;91.97;;;48.72;;
76357;SDS011;65185;21.060;105.826;2023-02-18T02:48:00;94.65;;;50.15;;
76357;SDS011;65185;21.060;105.826;2023-02-18T02:53:39;102.35;;;53.55;;
76357;SDS011;65185;21.060;105.826;2023-02-18T02:56:25;88.07;;;48.03;;
76357;SDS011;65185;21.060;105.826;2023-02-18T02:58:55;94.22;;;50.47;;
76357;SDS011;65185;21.060;105.826;2023-02-18T03:10:25;103.53;;;52.25;;
76357;SDS011;65185;21.060;105.826;2023-02-18T03:13:30;98.10;;;51.08;;
76357;SDS011;65185;21.060;105.826;2023-02-18T03:19:05;87.75;;;48.30;;
76357;SDS011;65185;21.060;105.826;2023-02-18T03:24:11;91.60;;;48.28;;
76357;SDS011;65185;21.060;105.826;2023-02-18T03:26:46;84.28;;;45.42;;
76357;SDS011;65185;21.060;105.826;2023-02-18T03:29:17;94.97;;;52.88;;
76357;SDS011;65185;21.060;105.826;2023-02-18T03:31:49;85.10;;;46.47;;
76357;SDS011;65185;21.060;105.826;2023-02-18T03:34:25;86.53;;;47.92;;
76357;SDS011;65185;21.060;105.826;2023-02-18T03:36:56;91.90;;;48.63;;
76357;SDS011;65185;21.060;105.826;2023-02-18T03:39:25;85.70;;;44.90;;
76357;SDS011;65185;21.060;105.826;2023-02-18T03:41:54;84.75;;;48.03;;
76357;SDS011;65185;21.060;105.826;2023-02-18T03:44:22;88.05;;;47.08;;
76357;SDS011;65185;21.060;105.826;2023-02-18T03:46:50;83.57;;;44.25;;
76357;SDS011;65185;21.060;105.826;2023-02-18T03:49:18;86.55;;;48.38;;
76357;SDS011;65185;21.060;105.826;2023-02-18T03:51:45;86.22;;;47.58;;
76357;SDS011;65185;21.060;105.826;2023-02-18T03:54:12;89.13;;;48.25;;
76357;SDS011;65185;21.060;105.826;2023-02-18T03:56:40;84.82;;;46.65;;
76357;SDS011;65185;21.060;105.826;2023-02-18T03:59:07;84.88;;;45.85;;
76357;SDS011;65185;21.060;105.826;2023-02-18T04:01:36;84.78;;;45.28;;
76357;SDS011;65185;21.060;105.826;2023-02-18T04:04:03;80.63;;;44.42;;
76357;SDS011;65185;21.060;105.826;2023-02-18T04:06:30;75.32;;;42.38;;
76357;SDS011;65185;21.060;105.826;2023-02-18T04:08:58;99.97;;;51.42;;
76357;SDS011;65185;21.060;105.826;2023-02-18T04:11:25;87.97;;;47.70;;
76357;SDS011;65185;21.060;105.826;2023-02-18T04:13:52;82.95;;;45.25;;
76357;SDS011;65185;21.060;105.826;2023-02-18T04:16:19;92.03;;;48.50;;
76357;SDS011;65185;21.060;105.826;2023-02-18T04:18:45;80.47;;;45.70;;
76357;SDS011;65185;21.060;105.826;2023-02-18T04:21:12;85.97;;;48.55;;
76357;SDS011;65185;21.060;105.826;2023-02-18T04:23:39;84.97;;;48.35;;
76357;SDS011;65185;21.060;105.826;2023-02-18T04:26:06;79.43;;;44.63;;
76357;SDS011;65185;21.060;105.826;2023-02-18T04:28:33;84.45;;;46.53;;
76357;SDS011;65185;21.060;105.826;2023-02-18T04:31:00;88.70;;;47.20;;
76357;SDS011;65185;21.060;105.826;2023-02-18T04:33:27;80.93;;;45.20;;
76357;SDS011;65185;21.060;105.826;2023-02-18T04:35:54;72.10;;;41.65;;
76357;SDS011;65185;21.060;105.826;2023-02-18T04:38:21;75.72;;;43.25;;
76357;SDS011;65185;21.060;105.826;2023-02-18T04:40:48;78.90;;;44.50;;
76357;SDS011;65185;21.060;105.826;2023-02-18T04:43:15;80.97;;;45.25;;
76357;SDS011;65185;21.060;105.826;2023-02-18T04:45:42;78.97;;;45.60;;
76357;SDS011;65185;21.060;105.826;2023-02-18T04:48:09;87.28;;;48.72;;
76357;SDS011;65185;21.060;105.826;2023-02-18T04:50:36;89.65;;;49.72;;
76357;SDS011;65185;21.060;105.826;2023-02-18T04:53:03;105.10;;;59.22;;
76357;SDS011;65185;21.060;105.826;2023-02-18T04:55:30;108.90;;;59.78;;
76357;SDS011;65185;21.060;105.826;2023-02-18T04:57:57;106.22;;;58.88;;
76357;SDS011;65185;21.060;105.826;2023-02-18T05:00:24;96.03;;;54.97;;
76357;SDS011;65185;21.060;105.826;2023-02-18T05:02:52;102.07;;;52.08;;
76357;SDS011;65185;21.060;105.826;2023-02-18T05:05:20;94.22;;;51.67;;
76357;SDS011;65185;21.060;105.826;2023-02-18T05:07:47;91.35;;;50.45;;
76357;SDS011;65185;21.060;105.826;2023-02-18T05:10:15;91.75;;;50.72;;
76357;SDS011;65185;21.060;105.826;2023-02-18T05:12:42;85.07;;;47.33;;
76357;SDS011;65185;21.060;105.826;2023-02-18T05:15:10;98.65;;;57.45;;
76357;SDS011;65185;21.060;105.826;2023-02-18T05:17:37;98.90;;;56.63;;
76357;SDS011;65185;21.060;105.826;2023-02-18T05:20:04;94.15;;;51.47;;
76357;SDS011;65185;21.060;105.826;2023-02-18T05:22:31;91.07;;;49.90;;
76357;SDS011;65185;21.060;105.826;2023-02-18T05:24:58;86.18;;;49.30;;
76357;SDS011;65185;21.060;105.826;2023-02-18T05:27:25;100.63;;;55.63;;
76357;SDS011;65185;21.060;105.826;2023-02-18T05:29:53;100.25;;;55.53;;
76357;SDS011;65185;21.060;105.826;2023-02-18T05:32:20;107.97;;;57.20;;
76357;SDS011;65185;21.060;105.826;2023-02-18T05:34:47;99.70;;;56.55;;
76357;SDS011;65185;21.060;105.826;2023-02-18T05:37:14;108.60;;;58.47;;
76357;SDS011;65185;21.060;105.826;2023-02-18T05:39:43;104.10;;;56.53;;
76357;SDS011;65185;21.060;105.826;2023-02-18T05:42:10;101.75;;;57.35;;
76357;SDS011;65185;21.060;105.826;2023-02-18T05:44:37;108.60;;;58.17;;
76357;SDS011;65185;21.060;105.826;2023-02-18T05:47:06;105.38;;;58.58;;
76357;SDS011;65185;21.060;105.826;2023-02-18T05:49:35;108.05;;;57.15;;
76357;SDS011;65185;21.060;105.826;2023-02-18T05:52:04;98.13;;;53.25;;
76357;SDS011;65185;21.060;105.826;2023-02-18T05:54:32;110.80;;;57.10;;
76357;SDS011;65185;21.060;105.826;2023-02-18T05:57:00;104.90;;;56.08;;
76357;SDS011;65185;21.060;105.826;2023-02-18T05:59:27;94.18;;;54.25;;
76357;SDS011;65185;21.060;105.826;2023-02-18T06:02:00;102.38;;;57.47;;
76357;SDS011;65185;21.060;105.826;2023-02-18T06:04:27;92.20;;;51.90;;
76357;SDS011;65185;21.060;105.826;2023-02-18T06:06:54;92.35;;;51.05;;
76357;SDS011;65185;21.060;105.826;2023-02-18T06:09:21;93.63;;;50.00;;
76357;SDS011;65185;21.060;105.826;2023-02-18T06:11:48;92.50;;;50.35;;
76357;SDS011;65185;21.060;105.826;2023-02-18T06:14:15;84.55;;;46.13;;
76357;SDS011;65185;21.060;105.826;2023-02-18T06:16:42;84.80;;;46.40;;
76357;SDS011;65185;21.060;105.826;2023-02-18T06:19:09;93.50;;;47.58;;
76357;SDS011;65185;21.060;105.826;2023-02-18T06:21:36;92.63;;;51.53;;
76357;SDS011;65185;21.060;105.826;2023-02-18T06:24:03;97.93;;;53.47;;
76357;SDS011;65185;21.060;105.826;2023-02-18T06:26:30;90.93;;;48.25;;
76357;SDS011;65185;21.060;105.826;2023-02-18T06:28:57;85.40;;;48.08;;
76357;SDS011;65185;21.060;105.826;2023-02-18T06:31:24;103.20;;;55.92;;
76357;SDS011;65185;21.060;105.826;2023-02-18T06:33:52;98.13;;;53.20;;
76357;SDS011;65185;21.060;105.826;2023-02-18T06:36:19;98.82;;;52.38;;
76357;SDS011;65185;21.060;105.826;2023-02-18T06:38:46;96.43;;;52.13;;
76357;SDS011;65185;21.060;105.826;2023-02-18T06:41:13;92.15;;;50.35;;
76357;SDS011;65185;21.060;105.826;2023-02-18T06:43:40;85.68;;;47.17;;
76357;SDS011;65185;21.060;105.826;2023-02-18T06:46:12;92.68;;;47.70;;
76357;SDS011;65185;21.060;105.826;2023-02-18T06:48:39;98.75;;;50.42;;
76357;SDS011;65185;21.060;105.826;2023-02-18T06:51:06;89.25;;;48.42;;
76357;SDS011;65185;21.060;105.826;2023-02-18T06:53:33;83.85;;;45.42;;
76357;SDS011;65185;21.060;105.826;2023-02-18T06:56:00;97.00;;;51.22;;
76357;SDS011;65185;21.060;105.826;2023-02-18T06:58:27;86.13;;;47.47;;
76357;SDS011;65185;21.060;105.826;2023-02-18T07:00:54;85.93;;;48.22;;
76357;SDS011;65185;21.060;105.826;2023-02-18T07:03:21;91.35;;;50.20;;
76357;SDS011;65185;21.060;105.826;2023-02-18T07:05:48;91.07;;;50.25;;
76357;SDS011;65185;21.060;105.826;2023-02-18T07:08:15;85.40;;;49.00;;
76357;SDS011;65185;21.060;105.826;2023-02-18T07:10:43;89.20;;;47.78;;
76357;SDS011;65185;21.060;105.826;2023-02-18T07:13:09;85.82;;;46.17;;
76357;SDS011;65185;21.060;105.826;2023-02-18T07:15:36;82.88;;;45.70;;
76357;SDS011;65185;21.060;105.826;2023-02-18T07:18:03;87.38;;;46.35;;
76357;SDS011;65185;21.060;105.826;2023-02-18T07:20:30;85.72;;;44.03;;
76357;SDS011;65185;21.060;105.826;2023-02-18T07:22:57;74.63;;;42.67;;
76357;SDS011;65185;21.060;105.826;2023-02-18T07:25:25;77.22;;;44.00;;
76357;SDS011;65185;21.060;105.826;2023-02-18T07:27:52;84.97;;;47.53;;
76357;SDS011;65185;21.060;105.826;2023-02-18T07:30:19;74.50;;;41.95;;
76357;SDS011;65185;21.060;105.826;2023-02-18T07:32:46;75.88;;;43.17;;
76357;SDS011;65185;21.060;105.826;2023-02-18T07:35:14;75.93;;;42.92;;
76357;SDS011;65185;21.060;105.826;2023-02-18T07:37:45;72.90;;;40.35;;
76357;SDS011;65185;21.060;105.826;2023-02-18T07:40:14;73.68;;;40.70;;
76357;SDS011;65185;21.060;105.826;2023-02-18T07:42:42;72.93;;;41.70;;
76357;SDS011;65185;21.060;105.826;2023-02-18T07:45:10;77.32;;;43.75;;
76357;SDS011;65185;21.060;105.826;2023-02-18T07:47:37;74.10;;;41.08;;
76357;SDS011;65185;21.060;105.826;2023-02-18T07:50:07;79.72;;;41.92;;
76357;SDS011;65185;21.060;105.826;2023-02-18T07:52:34;77.80;;;40.85;;
76357;SDS011;65185;21.060;105.826;2023-02-18T07:55:01;71.43;;;39.72;;
76357;SDS011;65185;21.060;105.826;2023-02-18T07:57:28;66.30;;;35.60;;
76357;SDS011;65185;21.060;105.826;2023-02-18T07:59:55;62.33;;;35.53;;
76357;SDS011;65185;21.060;105.826;2023-02-18T08:02:23;70.10;;;37.67;;
76357;SDS011;65185;21.060;105.826;2023-02-18T08:04:50;81.28;;;42.75;;
76357;SDS011;65185;21.060;105.826;2023-02-18T08:07:17;77.85;;;42.65;;
76357;SDS011;65185;21.060;105.826;2023-02-18T08:09:46;76.35;;;40.22;;
76357;SDS011;65185;21.060;105.826;2023-02-18T08:12:15;68.03;;;36.95;;
76357;SDS011;65185;21.060;105.826;2023-02-18T08:14:42;64.95;;;37.90;;
76357;SDS011;65185;21.060;105.826;2023-02-18T08:17:08;76.40;;;43.03;;
76357;SDS011;65185;21.060;105.826;2023-02-18T08:19:35;87.28;;;46.10;;
76357;SDS011;65185;21.060;105.826;2023-02-18T08:22:02;78.22;;;43.10;;
76357;SDS011;65185;21.060;105.826;2023-02-18T08:24:35;75.97;;;40.97;;
76357;SDS011;65185;21.060;105.826;2023-02-18T08:27:02;78.70;;;42.58;;
76357;SDS011;65185;21.060;105.826;2023-02-18T08:29:28;73.82;;;40.65;;
76357;SDS011;65185;21.060;105.826;2023-02-18T08:31:55;81.30;;;45.63;;
76357;SDS011;65185;21.060;105.826;2023-02-18T08:34:23;80.40;;;42.65;;
76357;SDS011;65185;21.060;105.826;2023-02-18T08:36:50;77.60;;;42.58;;
76357;SDS011;65185;21.060;105.826;2023-02-18T08:39:16;82.22;;;43.80;;
76357;SDS011;65185;21.060;105.826;2023-02-18T08:41:43;74.70;;;43.20;;
76357;SDS011;65185;21.060;105.826;2023-02-18T08:44:10;77.90;;;43.70;;
76357;SDS011;65185;21.060;105.826;2023-02-18T08:46:36;78.38;;;43.65;;
76357;SDS011;65185;21.060;105.826;2023-02-18T08:49:03;79.03;;;42.95;;
76357;SDS011;65185;21.060;105.826;2023-02-18T08:51:30;73.78;;;40.90;;
76357;SDS011;65185;21.060;105.826;2023-02-18T08:53:56;80.80;;;41.20;;
76357;SDS011;65185;21.060;105.826;2023-02-18T08:56:23;72.22;;;39.95;;
76357;SDS011;65185;21.060;105.826;2023-02-18T08:58:50;77.00;;;40.08;;
76357;SDS011;65185;21.060;105.826;2023-02-18T09:01:17;74.28;;;38.53;;
76357;SDS011;65185;21.060;105.826;2023-02-18T09:03:45;71.40;;;38.15;;
76357;SDS011;65185;21.060;105.826;2023-02-18T09:06:12;79.55;;;40.58;;
76357;SDS011;65185;21.060;105.826;2023-02-18T09:08:39;75.95;;;39.58;;
76357;SDS011;65185;21.060;105.826;2023-02-18T09:11:05;70.55;;;39.38;;
76357;SDS011;65185;21.060;105.826;2023-02-18T09:13:34;73.05;;;38.78;;
76357;SDS011;65185;21.060;105.826;2023-02-18T09:16:02;70.40;;;37.13;;
76357;SDS011;65185;21.060;105.826;2023-02-18T09:18:32;71.15;;;38.15;;
76357;SDS011;65185;21.060;105.826;2023-02-18T09:21:03;74.88;;;38.65;;
76357;SDS011;65185;21.060;105.826;2023-02-18T09:23:31;68.43;;;37.40;;
76357;SDS011;65185;21.060;105.826;2023-02-18T09:25:58;74.85;;;39.67;;
76357;SDS011;65185;21.060;105.826;2023-02-18T09:28:25;67.05;;;36.60;;
76357;SDS011;65185;21.060;105.826;2023-02-18T09:30:52;71.72;;;36.50;;
76357;SDS011;65185;21.060;105.826;2023-02-18T09:33:19;65.18;;;35.10;;
76357;SDS011;65185;21.060;105.826;2023-02-18T09:35:46;71.20;;;37.85;;
76357;SDS011;65185;21.060;105.826;2023-02-18T09:38:14;69.78;;;38.00;;
76357;SDS011;65185;21.060;105.826;2023-02-18T09:40:42;78.07;;;40.63;;
76357;SDS011;65185;21.060;105.826;2023-02-18T09:46:27;72.20;;;37.42;;
76357;SDS011;65185;21.060;105.826;2023-02-18T09:48:59;76.20;;;38.30;;
76357;SDS011;65185;21.060;105.826;2023-02-18T09:51:29;71.85;;;38.75;;
76357;SDS011;65185;21.060;105.826;2023-02-18T09:53:56;68.85;;;38.20;;
76357;SDS011;65185;21.060;105.826;2023-02-18T09:56:26;73.63;;;39.67;;
76357;SDS011;65185;21.060;105.826;2023-02-18T09:58:59;71.30;;;39.75;;
76357;SDS011;65185;21.060;105.826;2023-02-18T10:01:31;70.93;;;37.65;;
76357;SDS011;65185;21.060;105.826;2023-02-18T10:06:56;71.75;;;38.22;;
76357;SDS011;65185;21.060;105.826;2023-02-18T10:09:27;74.18;;;38.80;;
76357;SDS011;65185;21.060;105.826;2023-02-18T10:12:14;71.40;;;39.97;;
76357;SDS011;65185;21.060;105.826;2023-02-18T10:14:44;73.97;;;39.72;;
76357;SDS011;65185;21.060;105.826;2023-02-18T10:17:16;77.88;;;42.75;;
76357;SDS011;65185;21.060;105.826;2023-02-18T10:19:46;69.05;;;40.90;;
76357;SDS011;65185;21.060;105.826;2023-02-18T10:22:15;73.53;;;42.10;;
76357;SDS011;65185;21.060;105.826;2023-02-18T10:24:45;81.70;;;46.88;;
76357;SDS011;65185;21.060;105.826;2023-02-18T10:27:36;87.40;;;46.40;;
76357;SDS011;65185;21.060;105.826;2023-02-18T10:32:46;91.32;;;47.30;;
76357;SDS011;65185;21.060;105.826;2023-02-18T10:35:24;91.45;;;47.97;;
76357;SDS011;65185;21.060;105.826;2023-02-18T10:40:55;88.25;;;46.78;;
76357;SDS011;65185;21.060;105.826;2023-02-18T10:52:02;79.82;;;44.25;;
76357;SDS011;65185;21.060;105.826;2023-02-18T10:54:51;84.70;;;47.70;;
76357;SDS011;65185;21.060;105.826;2023-02-18T10:57:24;78.00;;;43.47;;
76357;SDS011;65185;21.060;105.826;2023-02-18T11:00:02;81.40;;;44.45;;
76357;SDS011;65185;21.060;105.826;2023-02-18T11:02:35;67.85;;;38.50;;
76357;SDS011;65185;21.060;105.826;2023-02-18T11:05:24;79.13;;;42.55;;
76357;SDS011;65185;21.060;105.826;2023-02-18T11:07:52;79.28;;;43.75;;
76357;SDS011;65185;21.060;105.826;2023-02-18T11:10:23;71.60;;;41.92;;
76357;SDS011;65185;21.060;105.826;2023-02-18T11:13:07;81.40;;;45.75;;
76357;SDS011;65185;21.060;105.826;2023-02-18T11:15:36;74.75;;;42.42;;
76357;SDS011;65185;21.060;105.826;2023-02-18T11:18:13;78.35;;;44.95;;
76357;SDS011;65185;21.060;105.826;2023-02-18T11:20:56;76.43;;;43.97;;
76357;SDS011;65185;21.060;105.826;2023-02-18T11:23:24;74.32;;;42.78;;
76357;SDS011;65185;21.060;105.826;2023-02-18T11:25:55;75.45;;;43.95;;
76357;SDS011;65185;21.060;105.826;2023-02-18T11:28:33;73.88;;;42.30;;
76357;SDS011;65185;21.060;105.826;2023-02-18T11:31:08;75.47;;;45.75;;
76357;SDS011;65185;21.060;105.826;2023-02-18T11:33:43;72.43;;;42.50;;
76357;SDS011;65185;21.060;105.826;2023-02-18T11:36:24;76.18;;;44.83;;
76357;SDS011;65185;21.060;105.826;2023-02-18T11:39:05;84.70;;;48.45;;
76357;SDS011;65185;21.060;105.826;2023-02-18T11:41:53;84.05;;;47.75;;
76357;SDS011;65185;21.060;105.826;2023-02-18T11:49:31;76.43;;;44.38;;
76357;SDS011;65185;21.060;105.826;2023-02-18T11:52:03;78.88;;;45.30;;
76357;SDS011;65185;21.060;105.826;2023-02-18T11:54:36;79.35;;;45.25;;
76357;SDS011;65185;21.060;105.826;2023-02-18T11:57:03;83.80;;;47.58;;
76357;SDS011;65185;21.060;105.826;2023-02-18T11:59:35;82.38;;;48.92;;
76357;SDS011;65185;21.060;105.826;2023-02-18T12:04:39;83.85;;;47.25;;
76357;SDS011;65185;21.060;105.826;2023-02-18T12:10:49;79.97;;;42.50;;
76357;SDS011;65185;21.060;105.826;2023-02-18T12:12:59;77.70;;;43.10;;
76357;SDS011;65185;21.060;105.826;2023-02-18T12:20:44;76.05;;;42.35;;
76357;SDS011;65185;21.060;105.826;2023-02-18T12:29:05;70.65;;;38.38;;
76357;SDS011;65185;21.060;105.826;2023-02-18T12:34:33;77.18;;;43.38;;
76357;SDS011;65185;21.060;105.826;2023-02-18T12:42:51;74.65;;;42.45;;
76357;SDS011;65185;21.060;105.826;2023-02-18T12:48:34;72.28;;;38.85;;
76357;SDS011;65185;21.060;105.826;2023-02-18T12:51:27;68.60;;;38.42;;
76357;SDS011;65185;21.060;105.826;2023-02-18T12:59:48;72.43;;;38.97;;
76357;SDS011;65185;21.060;105.826;2023-02-18T13:13:21;67.78;;;36.72;;
76357;SDS011;65185;21.060;105.826;2023-02-18T13:18:29;63.78;;;36.85;;
76357;SDS011;65185;21.060;105.826;2023-02-18T13:21:08;64.88;;;37.63;;
76357;SDS011;65185;21.060;105.826;2023-02-18T13:26:35;60.10;;;33.92;;
76357;SDS011;65185;21.060;105.826;2023-02-18T13:40:13;64.45;;;35.63;;
76357;SDS011;65185;21.060;105.826;2023-02-18T13:45:25;70.32;;;36.80;;
76357;SDS011;65185;21.060;105.826;2023-02-18T13:47:56;64.35;;;35.35;;
76357;SDS011;65185;21.060;105.826;2023-02-18T13:55:53;74.07;;;39.38;;
76357;SDS011;65185;21.060;105.826;2023-02-18T13:58:24;80.28;;;40.05;;
76357;SDS011;65185;21.060;105.826;2023-02-18T14:01:16;70.05;;;37.72;;
76357;SDS011;65185;21.060;105.826;2023-02-18T14:06:23;72.63;;;36.22;;
76357;SDS011;65185;21.060;105.826;2023-02-18T14:09:01;69.15;;;36.60;;
76357;SDS011;65185;21.060;105.826;2023-02-18T14:11:53;70.72;;;36.67;;
76357;SDS011;65185;21.060;105.826;2023-02-18T14:22:49;68.72;;;36.40;;
76357;SDS011;65185;21.060;105.826;2023-02-18T14:25:23;65.93;;;36.42;;
76357;SDS011;65185;21.060;105.826;2023-02-18T14:28:55;67.93;;;36.20;;
76357;SDS011;65185;21.060;105.826;2023-02-18T14:31:46;67.90;;;32.47;;
76357;SDS011;65185;21.060;105.826;2023-02-18T14:37:29;62.22;;;32.90;;
76357;SDS011;65185;21.060;105.826;2023-02-18T14:49:12;63.00;;;33.28;;
76357;SDS011;65185;21.060;105.826;2023-02-18T14:54:25;67.63;;;32.60;;
76357;SDS011;65185;21.060;105.826;2023-02-18T14:56:56;58.90;;;30.38;;
76357;SDS011;65185;21.060;105.826;2023-02-18T14:59:40;69.25;;;32.55;;
76357;SDS011;65185;21.060;105.826;2023-02-18T15:02:29;61.80;;;32.20;;
76357;SDS011;65185;21.060;105.826;2023-02-18T15:07:59;64.65;;;33.70;;
76357;SDS011;65185;21.060;105.826;2023-02-18T15:10:35;60.08;;;30.40;;
76357;SDS011;65185;21.060;105.826;2023-02-18T15:13:24;62.53;;;31.10;;
76357;SDS011;65185;21.060;105.826;2023-02-18T15:16:08;61.80;;;31.40;;
76357;SDS011;65185;21.060;105.826;2023-02-18T15:18:54;58.33;;;32.17;;
76357;SDS011;65185;21.060;105.826;2023-02-18T15:21:25;58.85;;;29.55;;
76357;SDS011;65185;21.060;105.826;2023-02-18T15:23:55;63.33;;;31.27;;
76357;SDS011;65185;21.060;105.826;2023-02-18T15:26:35;63.80;;;30.45;;
76357;SDS011;65185;21.060;105.826;2023-02-18T15:29:14;55.53;;;31.80;;
76357;SDS011;65185;21.060;105.826;2023-02-18T15:31:45;60.28;;;30.15;;
76357;SDS011;65185;21.060;105.826;2023-02-18T15:34:55;58.22;;;30.88;;
76357;SDS011;65185;21.060;105.826;2023-02-18T15:37:09;65.30;;;33.80;;
76357;SDS011;65185;21.060;105.826;2023-02-18T15:39:38;57.88;;;29.45;;
76357;SDS011;65185;21.060;105.826;2023-02-18T15:42:51;56.97;;;30.05;;
76357;SDS011;65185;21.060;105.826;2023-02-18T15:47:28;57.00;;;30.00;;
76357;SDS011;65185;21.060;105.826;2023-02-18T15:49:57;56.85;;;28.27;;
76357;SDS011;65185;21.060;105.826;2023-02-18T15:52:26;56.83;;;30.05;;
76357;SDS011;65185;21.060;105.826;2023-02-18T15:55:02;58.65;;;31.40;;
76357;SDS011;65185;21.060;105.826;2023-02-18T15:57:32;53.13;;;28.85;;
76357;SDS011;65185;21.060;105.826;2023-02-18T16:02:55;46.38;;;27.38;;
76357;SDS011;65185;21.060;105.826;2023-02-18T16:05:42;57.83;;;28.67;;
76357;SDS011;65185;21.060;105.826;2023-02-18T16:08:13;54.30;;;30.33;;
76357;SDS011;65185;21.060;105.826;2023-02-18T16:10:52;57.78;;;31.15;;
76357;SDS011;65185;21.060;105.826;2023-02-18T16:13:22;57.53;;;31.83;;
76357;SDS011;65185;21.060;105.826;2023-02-18T16:15:49;66.15;;;35.30;;
76357;SDS011;65185;21.060;105.826;2023-02-18T16:23:43;69.85;;;37.97;;
76357;SDS011;65185;21.060;105.826;2023-02-18T16:26:28;75.75;;;40.55;;
76357;SDS011;65185;21.060;105.826;2023-02-18T16:31:48;88.18;;;42.13;;
76357;SDS011;65185;21.060;105.826;2023-02-18T16:34:14;72.53;;;41.30;;
76357;SDS011;65185;21.060;105.826;2023-02-18T16:36:42;75.85;;;40.15;;
76357;SDS011;65185;21.060;105.826;2023-02-18T16:39:32;75.20;;;40.90;;
76357;SDS011;65185;21.060;105.826;2023-02-18T16:41:59;79.10;;;42.03;;
76357;SDS011;65185;21.060;105.826;2023-02-18T16:44:27;69.40;;;37.83;;
76357;SDS011;65185;21.060;105.826;2023-02-18T16:46:53;74.50;;;40.88;;
76357;SDS011;65185;21.060;105.826;2023-02-18T16:49:21;66.18;;;37.53;;
76357;SDS011;65185;21.060;105.826;2023-02-18T16:51:48;68.15;;;39.38;;
76357;SDS011;65185;21.060;105.826;2023-02-18T16:54:14;69.45;;;40.58;;
76357;SDS011;65185;21.060;105.826;2023-02-18T16:56:41;72.10;;;40.63;;
76357;SDS011;65185;21.060;105.826;2023-02-18T16:59:08;79.10;;;42.90;;
76357;SDS011;65185;21.060;105.826;2023-02-18T17:01:41;79.50;;;43.42;;
76357;SDS011;65185;21.060;105.826;2023-02-18T17:06:40;82.70;;;46.15;;
76357;SDS011;65185;21.060;105.826;2023-02-18T17:09:13;83.25;;;41.95;;
76357;SDS011;65185;21.060;105.826;2023-02-18T17:11:45;80.95;;;45.92;;
76357;SDS011;65185;21.060;105.826;2023-02-18T17:14:17;72.78;;;41.45;;
76357;SDS011;65185;21.060;105.826;2023-02-18T17:16:46;82.30;;;46.22;;
76357;SDS011;65185;21.060;105.826;2023-02-18T17:19:13;79.95;;;44.63;;
76357;SDS011;65185;21.060;105.826;2023-02-18T17:21:40;74.30;;;42.13;;
76357;SDS011;65185;21.060;105.826;2023-02-18T17:24:15;77.57;;;42.10;;
76357;SDS011;65185;21.060;105.826;2023-02-18T17:26:48;73.78;;;41.75;;
76357;SDS011;65185;21.060;105.826;2023-02-18T17:29:15;74.88;;;42.40;;